sensor_id;sensor_type;location;lat;lon;timestamp;P1;durP1;ratioP1;P2;durP2;ratioP2
68792;SDS011;55778;54.346;10.210;2022-10-20T00:01:24;2.55;;;1.40;;
68792;SDS011;55778;54.346;10.210;2022-10-20T00:03:51;4.15;;;1.40;;
68792;SDS011;55778;54.346;10.210;2022-10-20T00:06:18;2.22;;;1.38;;
68792;SDS011;55778;54.346;10.210;2022-10-20T00:08:45;3.80;;;1.42;;
68792;SDS011;55778;54.346;10.210;2022-10-20T00:11:12;2.88;;;1.17;;
68792;SDS011;55778;54.346;10.210;2022-10-20T00:13:39;2.45;;;1.20;;
68792;SDS011;55778;54.346;10.210;2022-10-20T00:16:05;2.35;;;1.30;;
68792;SDS011;55778;54.346;10.210;2022-10-20T00:18:31;3.15;;;1.30;;
68792;SDS011;55778;54.346;10.210;2022-10-20T00:20:57;4.32;;;1.40;;
68792;SDS011;55778;54.346;10.210;2022-10-20T00:23:22;2.50;;;1.10;;
68792;SDS011;55778;54.346;10.210;2022-10-20T00:25:48;2.47;;;1.52;;
68792;SDS011;55778;54.346;10.210;2022-10-20T00:28:13;2.92;;;1.70;;
68792;SDS011;55778;54.346;10.210;2022-10-20T00:30:39;2.08;;;1.42;;
68792;SDS011;55778;54.346;10.210;2022-10-20T00:33:05;3.75;;;1.75;;
68792;SDS011;55778;54.346;10.210;2022-10-20T00:35:31;3.50;;;2.00;;
68792;SDS011;55778;54.346;10.210;2022-10-20T00:37:57;4.63;;;2.40;;
68792;SDS011;55778;54.346;10.210;2022-10-20T00:40:23;4.22;;;2.55;;
68792;SDS011;55778;54.346;10.210;2022-10-20T00:42:48;5.90;;;3.63;;
68792;SDS011;55778;54.346;10.210;2022-10-20T00:45:15;7.40;;;4.28;;
68792;SDS011;55778;54.346;10.210;2022-10-20T00:47:43;10.68;;;6.45;;
68792;SDS011;55778;54.346;10.210;2022-10-20T00:50:15;12.65;;;6.85;;
68792;SDS011;55778;54.346;10.210;2022-10-20T00:52:43;13.63;;;8.20;;
68792;SDS011;55778;54.346;10.210;2022-10-20T00:55:11;16.55;;;9.02;;
68792;SDS011;55778;54.346;10.210;2022-10-20T00:57:41;16.25;;;9.43;;
68792;SDS011;55778;54.346;10.210;2022-10-20T01:00:10;17.38;;;9.85;;
68792;SDS011;55778;54.346;10.210;2022-10-20T01:02:36;19.33;;;9.82;;
68792;SDS011;55778;54.346;10.210;2022-10-20T01:05:02;19.95;;;10.68;;
68792;SDS011;55778;54.346;10.210;2022-10-20T01:07:28;19.48;;;11.30;;
68792;SDS011;55778;54.346;10.210;2022-10-20T01:09:53;22.15;;;11.20;;
68792;SDS011;55778;54.346;10.210;2022-10-20T01:17:46;19.80;;;10.55;;
68792;SDS011;55778;54.346;10.210;2022-10-20T01:23:19;17.92;;;10.68;;
68792;SDS011;55778;54.346;10.210;2022-10-20T01:31:31;17.42;;;9.40;;
68792;SDS011;55778;54.346;10.210;2022-10-20T01:34:38;17.50;;;9.68;;
68792;SDS011;55778;54.346;10.210;2022-10-20T01:37:06;17.10;;;9.70;;
68792;SDS011;55778;54.346;10.210;2022-10-20T01:39:41;17.02;;;8.80;;
68792;SDS011;55778;54.346;10.210;2022-10-20T01:42:15;15.43;;;8.55;;
68792;SDS011;55778;54.346;10.210;2022-10-20T01:44:50;17.48;;;8.10;;
68792;SDS011;55778;54.346;10.210;2022-10-20T01:47:19;14.20;;;7.93;;
68792;SDS011;55778;54.346;10.210;2022-10-20T01:49:48;16.00;;;7.30;;
68792;SDS011;55778;54.346;10.210;2022-10-20T01:52:14;14.35;;;7.20;;
68792;SDS011;55778;54.346;10.210;2022-10-20T01:54:40;10.18;;;6.32;;
68792;SDS011;55778;54.346;10.210;2022-10-20T02:00:14;13.15;;;6.03;;
68792;SDS011;55778;54.346;10.210;2022-10-20T02:11:01;9.68;;;5.20;;
68792;SDS011;55778;54.346;10.210;2022-10-20T02:13:30;10.45;;;4.78;;
68792;SDS011;55778;54.346;10.210;2022-10-20T02:15:59;7.55;;;4.20;;
68792;SDS011;55778;54.346;10.210;2022-10-20T02:18:30;9.32;;;4.60;;
68792;SDS011;55778;54.346;10.210;2022-10-20T02:21:03;8.63;;;4.50;;
68792;SDS011;55778;54.346;10.210;2022-10-20T02:23:30;8.43;;;4.60;;
68792;SDS011;55778;54.346;10.210;2022-10-20T02:26:00;10.10;;;4.03;;
68792;SDS011;55778;54.346;10.210;2022-10-20T02:28:29;9.38;;;4.47;;
68792;SDS011;55778;54.346;10.210;2022-10-20T02:30:57;6.93;;;3.92;;
68792;SDS011;55778;54.346;10.210;2022-10-20T02:33:23;9.30;;;4.15;;
68792;SDS011;55778;54.346;10.210;2022-10-20T02:35:55;9.38;;;3.95;;
68792;SDS011;55778;54.346;10.210;2022-10-20T02:38:22;8.40;;;4.00;;
68792;SDS011;55778;54.346;10.210;2022-10-20T02:40:47;7.05;;;4.00;;
68792;SDS011;55778;54.346;10.210;2022-10-20T02:43:13;6.65;;;3.65;;
68792;SDS011;55778;54.346;10.210;2022-10-20T02:45:38;6.47;;;3.85;;
68792;SDS011;55778;54.346;10.210;2022-10-20T02:48:04;7.70;;;4.18;;
68792;SDS011;55778;54.346;10.210;2022-10-20T02:50:29;7.75;;;3.63;;
68792;SDS011;55778;54.346;10.210;2022-10-20T02:52:55;8.43;;;4.28;;
68792;SDS011;55778;54.346;10.210;2022-10-20T02:55:20;7.05;;;3.97;;
68792;SDS011;55778;54.346;10.210;2022-10-20T02:57:45;7.68;;;3.83;;
68792;SDS011;55778;54.346;10.210;2022-10-20T03:00:11;5.82;;;3.42;;
68792;SDS011;55778;54.346;10.210;2022-10-20T03:02:37;7.15;;;3.78;;
68792;SDS011;55778;54.346;10.210;2022-10-20T03:05:03;5.70;;;3.47;;
68792;SDS011;55778;54.346;10.210;2022-10-20T03:07:28;4.82;;;3.10;;
68792;SDS011;55778;54.346;10.210;2022-10-20T03:09:53;4.80;;;3.20;;
68792;SDS011;55778;54.346;10.210;2022-10-20T03:12:19;5.18;;;3.00;;
68792;SDS011;55778;54.346;10.210;2022-10-20T03:14:44;7.60;;;3.22;;
68792;SDS011;55778;54.346;10.210;2022-10-20T03:17:10;5.65;;;3.20;;
68792;SDS011;55778;54.346;10.210;2022-10-20T03:19:35;13.90;;;6.72;;
68792;SDS011;55778;54.346;10.210;2022-10-20T03:22:00;7.88;;;3.75;;
68792;SDS011;55778;54.346;10.210;2022-10-20T03:24:26;6.45;;;3.90;;
68792;SDS011;55778;54.346;10.210;2022-10-20T03:26:51;6.65;;;3.15;;
68792;SDS011;55778;54.346;10.210;2022-10-20T03:29:16;31.20;;;15.15;;
68792;SDS011;55778;54.346;10.210;2022-10-20T03:31:42;6.50;;;3.42;;
68792;SDS011;55778;54.346;10.210;2022-10-20T03:34:07;5.15;;;3.20;;
68792;SDS011;55778;54.346;10.210;2022-10-20T03:36:33;4.47;;;2.90;;
68792;SDS011;55778;54.346;10.210;2022-10-20T03:38:58;12.18;;;7.07;;
68792;SDS011;55778;54.346;10.210;2022-10-20T03:41:23;11.60;;;5.65;;
68792;SDS011;55778;54.346;10.210;2022-10-20T03:43:49;5.22;;;3.13;;
68792;SDS011;55778;54.346;10.210;2022-10-20T03:46:14;5.07;;;2.58;;
68792;SDS011;55778;54.346;10.210;2022-10-20T03:48:40;11.27;;;5.60;;
68792;SDS011;55778;54.346;10.210;2022-10-20T03:51:05;10.48;;;4.50;;
68792;SDS011;55778;54.346;10.210;2022-10-20T03:53:33;4.72;;;2.50;;
68792;SDS011;55778;54.346;10.210;2022-10-20T03:55:58;6.57;;;3.20;;
68792;SDS011;55778;54.346;10.210;2022-10-20T04:00:53;6.80;;;2.85;;
68792;SDS011;55778;54.346;10.210;2022-10-20T04:03:19;4.60;;;2.75;;
68792;SDS011;55778;54.346;10.210;2022-10-20T04:05:44;4.95;;;2.78;;
68792;SDS011;55778;54.346;10.210;2022-10-20T04:08:09;5.13;;;2.55;;
68792;SDS011;55778;54.346;10.210;2022-10-20T04:10:35;6.82;;;2.65;;
68792;SDS011;55778;54.346;10.210;2022-10-20T04:13:00;6.57;;;2.80;;
68792;SDS011;55778;54.346;10.210;2022-10-20T04:15:26;5.32;;;2.83;;
68792;SDS011;55778;54.346;10.210;2022-10-20T04:17:52;4.15;;;2.78;;
68792;SDS011;55778;54.346;10.210;2022-10-20T04:20:17;7.13;;;3.92;;
68792;SDS011;55778;54.346;10.210;2022-10-20T04:22:43;23.90;;;12.80;;
68792;SDS011;55778;54.346;10.210;2022-10-20T04:25:09;4.82;;;2.72;;
68792;SDS011;55778;54.346;10.210;2022-10-20T04:27:36;5.07;;;2.45;;
68792;SDS011;55778;54.346;10.210;2022-10-20T04:30:02;6.22;;;2.60;;
68792;SDS011;55778;54.346;10.210;2022-10-20T04:32:28;4.45;;;2.80;;
68792;SDS011;55778;54.346;10.210;2022-10-20T04:34:54;3.38;;;2.25;;
68792;SDS011;55778;54.346;10.210;2022-10-20T04:37:19;4.93;;;2.45;;
68792;SDS011;55778;54.346;10.210;2022-10-20T04:39:45;4.43;;;2.30;;
68792;SDS011;55778;54.346;10.210;2022-10-20T04:42:10;4.93;;;2.65;;
68792;SDS011;55778;54.346;10.210;2022-10-20T04:44:35;3.58;;;2.47;;
68792;SDS011;55778;54.346;10.210;2022-10-20T04:47:01;4.95;;;2.85;;
68792;SDS011;55778;54.346;10.210;2022-10-20T04:49:26;3.97;;;2.42;;
68792;SDS011;55778;54.346;10.210;2022-10-20T04:51:51;4.32;;;2.30;;
68792;SDS011;55778;54.346;10.210;2022-10-20T04:54:17;6.82;;;2.50;;
68792;SDS011;55778;54.346;10.210;2022-10-20T04:56:42;4.38;;;2.50;;
68792;SDS011;55778;54.346;10.210;2022-10-20T04:59:10;4.28;;;2.22;;
68792;SDS011;55778;54.346;10.210;2022-10-20T05:01:35;11.07;;;5.60;;
68792;SDS011;55778;54.346;10.210;2022-10-20T05:04:00;5.20;;;3.47;;
68792;SDS011;55778;54.346;10.210;2022-10-20T05:06:27;4.05;;;2.30;;
68792;SDS011;55778;54.346;10.210;2022-10-20T05:08:56;6.03;;;2.70;;
68792;SDS011;55778;54.346;10.210;2022-10-20T05:11:23;5.47;;;2.35;;
68792;SDS011;55778;54.346;10.210;2022-10-20T05:13:51;8.25;;;2.50;;
68792;SDS011;55778;54.346;10.210;2022-10-20T05:16:17;3.78;;;2.35;;
68792;SDS011;55778;54.346;10.210;2022-10-20T05:18:43;3.13;;;2.22;;
68792;SDS011;55778;54.346;10.210;2022-10-20T05:21:12;4.50;;;2.03;;
68792;SDS011;55778;54.346;10.210;2022-10-20T05:23:39;4.95;;;2.17;;
68792;SDS011;55778;54.346;10.210;2022-10-20T05:26:08;4.07;;;2.50;;
68792;SDS011;55778;54.346;10.210;2022-10-20T05:28:38;4.05;;;2.33;;
68792;SDS011;55778;54.346;10.210;2022-10-20T05:31:04;5.32;;;2.30;;
68792;SDS011;55778;54.346;10.210;2022-10-20T05:33:33;4.97;;;2.28;;
68792;SDS011;55778;54.346;10.210;2022-10-20T05:36:04;5.93;;;2.90;;
68792;SDS011;55778;54.346;10.210;2022-10-20T05:38:30;4.50;;;2.38;;
68792;SDS011;55778;54.346;10.210;2022-10-20T05:41:03;5.32;;;2.30;;
68792;SDS011;55778;54.346;10.210;2022-10-20T05:43:31;3.30;;;2.05;;
68792;SDS011;55778;54.346;10.210;2022-10-20T05:45:57;4.45;;;2.38;;
68792;SDS011;55778;54.346;10.210;2022-10-20T05:48:22;4.78;;;2.05;;
68792;SDS011;55778;54.346;10.210;2022-10-20T05:50:48;3.63;;;2.10;;
68792;SDS011;55778;54.346;10.210;2022-10-20T05:53:13;5.38;;;2.50;;
68792;SDS011;55778;54.346;10.210;2022-10-20T05:55:38;3.97;;;2.30;;
68792;SDS011;55778;54.346;10.210;2022-10-20T05:58:04;9.80;;;4.80;;
68792;SDS011;55778;54.346;10.210;2022-10-20T06:00:29;5.65;;;2.58;;
68792;SDS011;55778;54.346;10.210;2022-10-20T06:02:56;5.32;;;2.17;;
68792;SDS011;55778;54.346;10.210;2022-10-20T06:05:22;4.65;;;2.25;;
68792;SDS011;55778;54.346;10.210;2022-10-20T06:07:48;5.85;;;2.55;;
68792;SDS011;55778;54.346;10.210;2022-10-20T06:10:13;8.00;;;4.07;;
68792;SDS011;55778;54.346;10.210;2022-10-20T06:12:38;7.43;;;3.65;;
68792;SDS011;55778;54.346;10.210;2022-10-20T06:15:04;3.22;;;2.30;;
68792;SDS011;55778;54.346;10.210;2022-10-20T06:17:30;3.72;;;2.28;;
68792;SDS011;55778;54.346;10.210;2022-10-20T06:19:55;5.22;;;2.60;;
68792;SDS011;55778;54.346;10.210;2022-10-20T06:22:20;4.50;;;2.10;;
68792;SDS011;55778;54.346;10.210;2022-10-20T06:24:46;8.45;;;2.58;;
68792;SDS011;55778;54.346;10.210;2022-10-20T06:27:11;6.65;;;2.97;;
68792;SDS011;55778;54.346;10.210;2022-10-20T06:29:36;4.63;;;1.90;;
68792;SDS011;55778;54.346;10.210;2022-10-20T06:32:02;4.57;;;2.28;;
68792;SDS011;55778;54.346;10.210;2022-10-20T06:34:27;7.95;;;3.40;;
68792;SDS011;55778;54.346;10.210;2022-10-20T06:36:52;8.18;;;3.80;;
68792;SDS011;55778;54.346;10.210;2022-10-20T06:39:19;7.57;;;2.72;;
68792;SDS011;55778;54.346;10.210;2022-10-20T06:41:49;3.55;;;2.40;;
68792;SDS011;55778;54.346;10.210;2022-10-20T06:44:16;3.75;;;2.00;;
68792;SDS011;55778;54.346;10.210;2022-10-20T06:46:43;6.32;;;2.20;;
68792;SDS011;55778;54.346;10.210;2022-10-20T06:49:09;4.07;;;1.42;;
68792;SDS011;55778;54.346;10.210;2022-10-20T06:51:35;2.90;;;1.77;;
68792;SDS011;55778;54.346;10.210;2022-10-20T06:54:01;3.92;;;1.75;;
68792;SDS011;55778;54.346;10.210;2022-10-20T06:56:28;3.15;;;1.60;;
68792;SDS011;55778;54.346;10.210;2022-10-20T06:58:55;2.92;;;1.45;;
68792;SDS011;55778;54.346;10.210;2022-10-20T07:01:22;3.25;;;1.55;;
68792;SDS011;55778;54.346;10.210;2022-10-20T07:03:53;3.00;;;1.92;;
68792;SDS011;55778;54.346;10.210;2022-10-20T07:06:34;4.75;;;1.50;;
68792;SDS011;55778;54.346;10.210;2022-10-20T07:09:01;7.45;;;2.22;;
68792;SDS011;55778;54.346;10.210;2022-10-20T07:11:29;3.45;;;1.63;;
68792;SDS011;55778;54.346;10.210;2022-10-20T07:13:58;8.80;;;3.75;;
68792;SDS011;55778;54.346;10.210;2022-10-20T07:16:25;4.50;;;1.65;;
68792;SDS011;55778;54.346;10.210;2022-10-20T07:18:52;3.38;;;1.45;;
68792;SDS011;55778;54.346;10.210;2022-10-20T07:21:19;2.83;;;1.67;;
68792;SDS011;55778;54.346;10.210;2022-10-20T07:23:46;2.45;;;1.40;;
68792;SDS011;55778;54.346;10.210;2022-10-20T07:26:13;4.97;;;1.60;;
68792;SDS011;55778;54.346;10.210;2022-10-20T07:31:10;5.20;;;1.63;;
68792;SDS011;55778;54.346;10.210;2022-10-20T07:33:37;3.80;;;1.40;;
68792;SDS011;55778;54.346;10.210;2022-10-20T07:36:10;4.75;;;2.15;;
68792;SDS011;55778;54.346;10.210;2022-10-20T07:38:40;4.45;;;1.55;;
68792;SDS011;55778;54.346;10.210;2022-10-20T07:41:06;4.95;;;1.77;;
68792;SDS011;55778;54.346;10.210;2022-10-20T07:43:32;2.85;;;1.45;;
68792;SDS011;55778;54.346;10.210;2022-10-20T07:45:58;4.00;;;1.30;;
68792;SDS011;55778;54.346;10.210;2022-10-20T07:48:23;4.40;;;1.67;;
68792;SDS011;55778;54.346;10.210;2022-10-20T07:50:49;3.30;;;1.58;;
68792;SDS011;55778;54.346;10.210;2022-10-20T07:53:14;4.13;;;1.52;;
68792;SDS011;55778;54.346;10.210;2022-10-20T07:55:39;5.10;;;1.65;;
68792;SDS011;55778;54.346;10.210;2022-10-20T07:58:05;3.97;;;1.48;;
68792;SDS011;55778;54.346;10.210;2022-10-20T08:00:30;3.03;;;1.50;;
68792;SDS011;55778;54.346;10.210;2022-10-20T08:02:56;4.90;;;1.70;;
68792;SDS011;55778;54.346;10.210;2022-10-20T08:05:21;2.70;;;1.70;;
68792;SDS011;55778;54.346;10.210;2022-10-20T08:07:46;2.50;;;1.50;;
68792;SDS011;55778;54.346;10.210;2022-10-20T08:10:12;5.50;;;2.40;;
68792;SDS011;55778;54.346;10.210;2022-10-20T08:12:37;3.28;;;1.40;;
68792;SDS011;55778;54.346;10.210;2022-10-20T08:15:03;3.88;;;1.65;;
68792;SDS011;55778;54.346;10.210;2022-10-20T08:17:28;3.60;;;1.88;;
68792;SDS011;55778;54.346;10.210;2022-10-20T08:19:54;4.60;;;1.90;;
68792;SDS011;55778;54.346;10.210;2022-10-20T08:22:22;2.60;;;1.55;;
68792;SDS011;55778;54.346;10.210;2022-10-20T08:24:47;3.10;;;1.45;;
68792;SDS011;55778;54.346;10.210;2022-10-20T08:27:13;3.17;;;1.50;;
68792;SDS011;55778;54.346;10.210;2022-10-20T08:29:38;3.92;;;1.70;;
68792;SDS011;55778;54.346;10.210;2022-10-20T08:32:04;5.32;;;1.60;;
68792;SDS011;55778;54.346;10.210;2022-10-20T08:34:30;2.60;;;1.35;;
68792;SDS011;55778;54.346;10.210;2022-10-20T08:36:55;4.05;;;1.40;;
68792;SDS011;55778;54.346;10.210;2022-10-20T08:39:21;3.70;;;1.35;;
68792;SDS011;55778;54.346;10.210;2022-10-20T08:41:46;2.25;;;1.42;;
68792;SDS011;55778;54.346;10.210;2022-10-20T08:44:18;2.35;;;1.35;;
68792;SDS011;55778;54.346;10.210;2022-10-20T08:46:49;2.92;;;1.33;;
68792;SDS011;55778;54.346;10.210;2022-10-20T08:49:23;2.55;;;1.27;;
68792;SDS011;55778;54.346;10.210;2022-10-20T08:51:51;2.17;;;1.20;;
68792;SDS011;55778;54.346;10.210;2022-10-20T08:54:20;2.25;;;1.15;;
68792;SDS011;55778;54.346;10.210;2022-10-20T08:56:45;2.70;;;1.30;;
68792;SDS011;55778;54.346;10.210;2022-10-20T08:59:22;5.72;;;1.35;;
68792;SDS011;55778;54.346;10.210;2022-10-20T09:01:51;1.90;;;1.02;;
68792;SDS011;55778;54.346;10.210;2022-10-20T09:04:31;3.00;;;1.30;;
68792;SDS011;55778;54.346;10.210;2022-10-20T09:07:02;1.98;;;1.10;;
68792;SDS011;55778;54.346;10.210;2022-10-20T09:09:34;8.07;;;1.30;;
68792;SDS011;55778;54.346;10.210;2022-10-20T09:12:04;2.15;;;1.33;;
68792;SDS011;55778;54.346;10.210;2022-10-20T09:14:32;2.83;;;0.90;;
68792;SDS011;55778;54.346;10.210;2022-10-20T09:17:03;1.88;;;1.10;;
68792;SDS011;55778;54.346;10.210;2022-10-20T09:19:30;2.28;;;1.13;;
68792;SDS011;55778;54.346;10.210;2022-10-20T09:21:57;1.92;;;1.00;;
68792;SDS011;55778;54.346;10.210;2022-10-20T09:24:30;3.20;;;1.20;;
68792;SDS011;55778;54.346;10.210;2022-10-20T09:26:56;2.58;;;1.00;;
68792;SDS011;55778;54.346;10.210;2022-10-20T09:29:40;3.42;;;1.40;;
68792;SDS011;55778;54.346;10.210;2022-10-20T09:32:47;2.28;;;1.10;;
68792;SDS011;55778;54.346;10.210;2022-10-20T09:34:58;1.77;;;1.20;;
68792;SDS011;55778;54.346;10.210;2022-10-20T09:37:36;1.08;;;0.98;;
68792;SDS011;55778;54.346;10.210;2022-10-20T09:40:02;4.82;;;1.10;;
68792;SDS011;55778;54.346;10.210;2022-10-20T09:42:34;3.75;;;1.40;;
68792;SDS011;55778;54.346;10.210;2022-10-20T09:47:47;1.48;;;0.80;;
68792;SDS011;55778;54.346;10.210;2022-10-20T09:50:21;2.70;;;1.00;;
68792;SDS011;55778;54.346;10.210;2022-10-20T09:52:51;2.67;;;1.10;;
68792;SDS011;55778;54.346;10.210;2022-10-20T09:57:48;2.83;;;1.10;;
68792;SDS011;55778;54.346;10.210;2022-10-20T10:00:30;2.25;;;1.00;;
68792;SDS011;55778;54.346;10.210;2022-10-20T10:05:33;2.17;;;1.05;;
68792;SDS011;55778;54.346;10.210;2022-10-20T10:07:59;1.70;;;0.88;;
68792;SDS011;55778;54.346;10.210;2022-10-20T10:10:26;1.92;;;1.30;;
68792;SDS011;55778;54.346;10.210;2022-10-20T10:12:55;3.03;;;1.10;;
68792;SDS011;55778;54.346;10.210;2022-10-20T10:15:26;1.48;;;1.10;;
68792;SDS011;55778;54.346;10.210;2022-10-20T10:17:54;1.98;;;1.25;;
68792;SDS011;55778;54.346;10.210;2022-10-20T10:22:46;3.50;;;1.40;;
68792;SDS011;55778;54.346;10.210;2022-10-20T10:25:16;3.63;;;1.33;;
68792;SDS011;55778;54.346;10.210;2022-10-20T10:27:58;1.75;;;1.10;;
68792;SDS011;55778;54.346;10.210;2022-10-20T10:30:31;2.30;;;1.30;;
68792;SDS011;55778;54.346;10.210;2022-10-20T10:32:58;2.58;;;1.60;;
68792;SDS011;55778;54.346;10.210;2022-10-20T10:35:36;5.65;;;1.30;;
68792;SDS011;55778;54.346;10.210;2022-10-20T10:38:04;1.35;;;1.20;;
68792;SDS011;55778;54.346;10.210;2022-10-20T10:43:23;2.63;;;1.30;;
68792;SDS011;55778;54.346;10.210;2022-10-20T10:45:59;2.45;;;0.93;;
68792;SDS011;55778;54.346;10.210;2022-10-20T10:54:19;3.65;;;1.50;;
68792;SDS011;55778;54.346;10.210;2022-10-20T10:59:41;1.45;;;1.20;;
68792;SDS011;55778;54.346;10.210;2022-10-20T11:07:49;3.20;;;1.15;;
68792;SDS011;55778;54.346;10.210;2022-10-20T11:10:42;3.22;;;1.30;;
68792;SDS011;55778;54.346;10.210;2022-10-20T11:15:55;2.90;;;1.38;;
68792;SDS011;55778;54.346;10.210;2022-10-20T11:18:44;2.63;;;1.10;;
68792;SDS011;55778;54.346;10.210;2022-10-20T11:27:03;2.92;;;1.60;;
68792;SDS011;55778;54.346;10.210;2022-10-20T11:29:35;3.72;;;1.55;;
68792;SDS011;55778;54.346;10.210;2022-10-20T11:32:25;3.47;;;1.60;;
68792;SDS011;55778;54.346;10.210;2022-10-20T11:38:06;2.35;;;1.20;;
68792;SDS011;55778;54.346;10.210;2022-10-20T11:46:23;3.58;;;1.63;;
68792;SDS011;55778;54.346;10.210;2022-10-20T11:48:56;2.45;;;1.50;;
68792;SDS011;55778;54.346;10.210;2022-10-20T12:05:19;2.63;;;1.17;;
68792;SDS011;55778;54.346;10.210;2022-10-20T12:07:58;2.80;;;1.50;;
68792;SDS011;55778;54.346;10.210;2022-10-20T12:13:08;3.35;;;1.52;;
68792;SDS011;55778;54.346;10.210;2022-10-20T12:15:46;3.05;;;1.35;;
68792;SDS011;55778;54.346;10.210;2022-10-20T12:18:32;3.03;;;1.40;;
68792;SDS011;55778;54.346;10.210;2022-10-20T12:21:10;1.70;;;1.20;;
68792;SDS011;55778;54.346;10.210;2022-10-20T12:34:49;3.00;;;1.50;;
68792;SDS011;55778;54.346;10.210;2022-10-20T12:37:17;2.95;;;1.50;;
68792;SDS011;55778;54.346;10.210;2022-10-20T12:39:49;3.33;;;1.73;;
68792;SDS011;55778;54.346;10.210;2022-10-20T12:42:22;3.92;;;1.63;;
68792;SDS011;55778;54.346;10.210;2022-10-20T12:44:53;3.30;;;1.35;;
68792;SDS011;55778;54.346;10.210;2022-10-20T12:47:22;2.53;;;1.73;;
68792;SDS011;55778;54.346;10.210;2022-10-20T12:49:58;3.30;;;1.50;;
68792;SDS011;55778;54.346;10.210;2022-10-20T12:52:30;3.30;;;1.55;;
68792;SDS011;55778;54.346;10.210;2022-10-20T13:01:04;1.92;;;1.38;;
68792;SDS011;55778;54.346;10.210;2022-10-20T13:09:06;5.50;;;1.85;;
68792;SDS011;55778;54.346;10.210;2022-10-20T13:11:50;2.05;;;1.58;;
68792;SDS011;55778;54.346;10.210;2022-10-20T13:14:29;3.22;;;1.70;;
68792;SDS011;55778;54.346;10.210;2022-10-20T13:19:35;5.10;;;1.75;;
68792;SDS011;55778;54.346;10.210;2022-10-20T13:25:12;5.53;;;2.50;;
68792;SDS011;55778;54.346;10.210;2022-10-20T13:27:42;3.20;;;1.83;;
68792;SDS011;55778;54.346;10.210;2022-10-20T13:30:08;2.08;;;1.40;;
68792;SDS011;55778;54.346;10.210;2022-10-20T13:38:05;2.83;;;1.90;;
68792;SDS011;55778;54.346;10.210;2022-10-20T13:40:46;1.83;;;1.50;;
68792;SDS011;55778;54.346;10.210;2022-10-20T13:46:20;6.63;;;1.70;;
68792;SDS011;55778;54.346;10.210;2022-10-20T13:51:30;3.47;;;1.83;;
68792;SDS011;55778;54.346;10.210;2022-10-20T13:53:58;2.97;;;1.70;;
68792;SDS011;55778;54.346;10.210;2022-10-20T13:59:14;4.03;;;2.00;;
68792;SDS011;55778;54.346;10.210;2022-10-20T14:01:45;2.88;;;1.90;;
68792;SDS011;55778;54.346;10.210;2022-10-20T14:06:50;2.10;;;1.50;;
68792;SDS011;55778;54.346;10.210;2022-10-20T14:09:17;3.28;;;1.70;;
68792;SDS011;55778;54.346;10.210;2022-10-20T14:11:48;2.40;;;1.60;;
68792;SDS011;55778;54.346;10.210;2022-10-20T14:14:19;2.75;;;1.80;;
68792;SDS011;55778;54.346;10.210;2022-10-20T14:19:21;4.25;;;1.70;;
68792;SDS011;55778;54.346;10.210;2022-10-20T14:21:50;3.35;;;1.83;;
68792;SDS011;55778;54.346;10.210;2022-10-20T14:24:17;4.32;;;2.10;;
68792;SDS011;55778;54.346;10.210;2022-10-20T14:26:50;3.95;;;2.40;;
68792;SDS011;55778;54.346;10.210;2022-10-20T14:29:16;3.50;;;2.00;;
68792;SDS011;55778;54.346;10.210;2022-10-20T14:31:44;3.33;;;1.73;;
68792;SDS011;55778;54.346;10.210;2022-10-20T14:34:15;4.45;;;2.47;;
68792;SDS011;55778;54.346;10.210;2022-10-20T14:36:44;3.90;;;2.15;;
68792;SDS011;55778;54.346;10.210;2022-10-20T14:39:18;4.03;;;1.80;;
68792;SDS011;55778;54.346;10.210;2022-10-20T14:41:48;4.63;;;1.85;;
68792;SDS011;55778;54.346;10.210;2022-10-20T14:44:16;3.85;;;2.10;;
68792;SDS011;55778;54.346;10.210;2022-10-20T14:46:46;4.10;;;2.00;;
68792;SDS011;55778;54.346;10.210;2022-10-20T14:52:18;4.78;;;2.65;;
68792;SDS011;55778;54.346;10.210;2022-10-20T14:54:51;4.10;;;2.20;;
68792;SDS011;55778;54.346;10.210;2022-10-20T14:59:49;3.05;;;1.98;;
68792;SDS011;55778;54.346;10.210;2022-10-20T15:02:35;5.25;;;2.30;;
68792;SDS011;55778;54.346;10.210;2022-10-20T15:07:58;5.25;;;2.08;;
68792;SDS011;55778;54.346;10.210;2022-10-20T15:10:34;3.42;;;1.83;;
68792;SDS011;55778;54.346;10.210;2022-10-20T15:13:00;5.13;;;2.10;;
68792;SDS011;55778;54.346;10.210;2022-10-20T15:15:35;5.85;;;2.13;;
68792;SDS011;55778;54.346;10.210;2022-10-20T15:25:29;4.68;;;2.30;;
68792;SDS011;55778;54.346;10.210;2022-10-20T15:27:57;5.05;;;2.40;;
68792;SDS011;55778;54.346;10.210;2022-10-20T15:30:23;4.60;;;2.20;;
68792;SDS011;55778;54.346;10.210;2022-10-20T15:32:50;5.25;;;2.30;;
68792;SDS011;55778;54.346;10.210;2022-10-20T15:35:17;4.38;;;2.28;;
68792;SDS011;55778;54.346;10.210;2022-10-20T15:37:48;5.47;;;2.55;;
68792;SDS011;55778;54.346;10.210;2022-10-20T15:40:16;6.38;;;2.35;;
68792;SDS011;55778;54.346;10.210;2022-10-20T15:42:43;4.38;;;2.20;;
68792;SDS011;55778;54.346;10.210;2022-10-20T15:45:26;4.93;;;2.63;;
68792;SDS011;55778;54.346;10.210;2022-10-20T15:47:56;5.03;;;2.28;;
68792;SDS011;55778;54.346;10.210;2022-10-20T15:50:22;4.28;;;2.28;;
68792;SDS011;55778;54.346;10.210;2022-10-20T15:52:47;3.03;;;2.00;;
68792;SDS011;55778;54.346;10.210;2022-10-20T15:55:16;5.00;;;2.75;;
68792;SDS011;55778;54.346;10.210;2022-10-20T15:57:47;3.55;;;2.30;;
68792;SDS011;55778;54.346;10.210;2022-10-20T16:00:17;3.40;;;2.15;;
68792;SDS011;55778;54.346;10.210;2022-10-20T16:02:44;5.53;;;2.13;;
68792;SDS011;55778;54.346;10.210;2022-10-20T16:05:11;7.30;;;2.88;;
68792;SDS011;55778;54.346;10.210;2022-10-20T16:07:36;7.13;;;3.72;;
68792;SDS011;55778;54.346;10.210;2022-10-20T16:10:03;5.93;;;3.08;;
68792;SDS011;55778;54.346;10.210;2022-10-20T16:12:32;3.83;;;2.10;;
68792;SDS011;55778;54.346;10.210;2022-10-20T16:14:58;8.13;;;2.88;;
68792;SDS011;55778;54.346;10.210;2022-10-20T16:17:23;5.22;;;2.80;;
68792;SDS011;55778;54.346;10.210;2022-10-20T16:19:49;4.90;;;2.90;;
68792;SDS011;55778;54.346;10.210;2022-10-20T16:22:14;4.22;;;2.20;;
68792;SDS011;55778;54.346;10.210;2022-10-20T16:24:39;3.55;;;2.03;;
68792;SDS011;55778;54.346;10.210;2022-10-20T16:27:05;3.25;;;2.25;;
68792;SDS011;55778;54.346;10.210;2022-10-20T16:29:31;5.55;;;2.30;;
68792;SDS011;55778;54.346;10.210;2022-10-20T16:31:57;5.35;;;2.47;;
68792;SDS011;55778;54.346;10.210;2022-10-20T16:34:23;4.20;;;2.38;;
68792;SDS011;55778;54.346;10.210;2022-10-20T16:36:50;6.28;;;2.30;;
68792;SDS011;55778;54.346;10.210;2022-10-20T16:39:15;4.60;;;2.33;;
68792;SDS011;55778;54.346;10.210;2022-10-20T16:41:43;4.75;;;2.05;;
68792;SDS011;55778;54.346;10.210;2022-10-20T16:44:09;4.40;;;2.40;;
68792;SDS011;55778;54.346;10.210;2022-10-20T16:46:35;4.85;;;2.38;;
68792;SDS011;55778;54.346;10.210;2022-10-20T16:49:00;5.65;;;2.53;;
68792;SDS011;55778;54.346;10.210;2022-10-20T16:51:26;4.30;;;2.40;;
68792;SDS011;55778;54.346;10.210;2022-10-20T16:53:55;4.60;;;2.30;;
68792;SDS011;55778;54.346;10.210;2022-10-20T16:56:21;5.35;;;2.50;;
68792;SDS011;55778;54.346;10.210;2022-10-20T16:58:47;4.30;;;2.50;;
68792;SDS011;55778;54.346;10.210;2022-10-20T17:01:13;5.43;;;2.60;;
68792;SDS011;55778;54.346;10.210;2022-10-20T17:03:40;4.88;;;2.80;;
68792;SDS011;55778;54.346;10.210;2022-10-20T17:06:07;5.72;;;2.92;;
68792;SDS011;55778;54.346;10.210;2022-10-20T17:08:34;5.43;;;2.65;;
68792;SDS011;55778;54.346;10.210;2022-10-20T17:11:01;4.40;;;2.65;;
68792;SDS011;55778;54.346;10.210;2022-10-20T17:13:29;4.22;;;2.33;;
68792;SDS011;55778;54.346;10.210;2022-10-20T17:15:55;3.78;;;2.40;;